Four Corners, Iowa
Current Conditions -  °F | °C
As of 2:35 AM on Saturday 20 Dec 2014 (Local Time) from KFFL Reporting Station
Overcast Overcast  
Wind Chill: 25°   Ceiling: 1700
Heat Index: 30°   Visibility: 8mi
Dew Point: 27°   Wind: 5mph
Humidity: 86%   Direction: 150°SSE
Pressure: 30.23"   Gusts: NA
Location:  41.03°N, 91.778°W
Report Text: KFFL 200835Z AUTO 15004KT 8SM OVC017 M01/M03 A3023 RMK AO2
Loading
Personal Weather Stations






























Interactive Weather Map New forecast layout! Learn more

10-Day Weather Forecast

Advertisements
Track Severe Weather on mobile